This is the latest recevied weather packets stored in our database for station/object DH1FR-13. If no packets are shown the sender has not sent any weather packets the latest 10 day(s).
| Time | Temp. | Humidity | Pressure | Rain* | Wind** | Luminosity | Snow |
|---|---|---|---|---|---|---|---|
| 1787671802 | 20.56° C | 64% | 1018.4 hPa | 0 mm | 0 m/s | - | - |
| 1787671200 | 21.11° C | 60% | 1018.3 hPa | 0 mm | 0 m/s | - | - |
| 1787670601 | 21.11° C | 57% | 1018.1 hPa | 0 mm | 0 m/s | - | - |
| 1787670000 | 21.11° C | 57% | 1017.8 hPa | 0 mm | 0 m/s | - | - |
| 1787669401 | 22.22° C | 54% | 1017.9 hPa | 0 mm | 0 m/s | - | - |
| 1787668800 | 22.22° C | 54% | 1017.7 hPa | 0 mm | 0 m/s | - | - |
| 1787668200 | 21.67° C | 53% | 1017.8 hPa | 0 mm | 0 m/s | - | - |
| 1787667600 | 21.67° C | 54% | 1017.8 hPa | 0 mm | 0 m/s | - | - |
| 1787667001 | 21.67° C | 53% | 1017.8 hPa | 0 mm | 0 m/s | - | - |
| 1787666400 | 22.22° C | 54% | 1017.7 hPa | 0 mm | 0 m/s | - | - |
| 1787665801 | 22.22° C | 54% | 1017.9 hPa | 0 mm | 0 m/s | - | - |
| 1787665201 | 21.67° C | 56% | 1017.6 hPa | 0 mm | 0 m/s | - | - |
| 1787664600 | 21.67° C | 56% | 1017.8 hPa | 0 mm | 0 m/s | - | - |
| 1787664000 | 22.22° C | 55% | 1017.8 hPa | 0 mm | 0 m/s | - | - |
| 1787663401 | 21.67° C | 55% | 1017.8 hPa | 0 mm | 0 m/s | - | - |
| 1787662801 | 21.67° C | 54% | 1017.6 hPa | 0 mm | 0.45 m/s, 78° | - | - |
| 1787662201 | 21.67° C | 54% | 1017.8 hPa | 0 mm | 0.45 m/s, 80° | - | - |
| 1787661601 | 21.67° C | 54% | 1017.6 hPa | 0 mm | 0.45 m/s, 82° | - | - |
| 1787661001 | 21.67° C | 54% | 1017.6 hPa | 0 mm | 0.45 m/s, 88° | - | - |
| 1787660401 | 22.22° C | 53% | 1017.6 hPa | 0 mm | 0 m/s | - | - |
| 1787659800 | 22.78° C | 51% | 1017.3 hPa | 0 mm | 0 m/s | - | - |
| 1787659200 | 22.78° C | 50% | 1017.4 hPa | 0 mm | 0 m/s | - | - |
| 1787658601 | 23.33° C | 48% | 1017.3 hPa | 0 mm | 0 m/s | - | - |
| 1787658000 | 23.33° C | 48% | 1017.3 hPa | 0 mm | 0 m/s | - | - |
| 1787657401 | 23.33° C | 49% | 1017.3 hPa | 0 mm | 0 m/s | - | - |
* Rain latest hour (hover to see other rain measurements)
** Current wind speed in m/s (hover to see current wind gust speed)